メインページ
METAR-TAF:

METAR-TAF

空港 :

サルガド・フィーリョ国際空港

ポルト・アレグレ, リオグランデ・ド・スル州, ブラジル

緯度: 30-00S, 経度: 051-11W, 海抜: 3m

現時点の気象観測

当レポートは48分前の11:00(UTC)に作成
西の風 4kt
気温 10°C
湿度 100%
気圧 1021 hPa
視程: 0500m
高度100ftの千切れ雲あり
高度300ftの千切れ雲あり

METAR: SBPA 221100Z 27004KT 0800 0500N R11/1100 R29/1200 FG BKN001 BKN003 10/10 Q1021

時間: 08:48 (11:48 UTC)

予報

当レポートは2時間48分前の09:00(UTC)に作成
予報は22日の 12時(UTC)から 23日の 12時(UTC)まで有効
西/北西の風 6kt
視程10km以上
1,500メートル以下は雲なし、積乱雲なし
確率 30%
22日の 12時(UTC)から 22日の 14時(UTC)まで
視程10km以上
高度1500ftの千切れ雲あり
22日の 20時(UTC)から 22日の 22時(UTC)まで徐々に
西の風 5kt
視程10km以上
1,500メートル以下は雲なし、積乱雲なし
確率 30%
23日の 08時(UTC)から 23日の 11時(UTC)まで
視程: 0500m
高度200ftの

TAF: SBPA 220900Z 2212/2312 29006KT CAVOK TX17/2218Z TN06/2309Z PROB30 2212/2214 9999 BKN015 BECMG 2220/2222 26005KT CAVOK PROB30 2308/2311 0500 FG VV002 RMK PDJ

4,000以上の空港の気象観測と天気予報(METAR報とTAF報)

利用可能な観測所は地図上に黄色い丸と赤い丸で示す。

丸の上にカーソルを重ねると観測所名を参照できる。

次にクリックすると気象観測と天気予報を参照できる。

マップの切り替え:黒色「×」印の緑ボタンをクリックして拡大、「-」印の緑ボタンをクリックして縮小、緑色の三角印をクリックして隣りの地図に切り替え


METAR-TAF: